Terminal Aerodrome Forecast
Issued by NWS Duluth, MN

Home | Current Version | Previous Version | Text Only | Print | Product List | Glossary On
Versions: 1 2 3 4 5 6 7 8 9 10 11 12 13 14 15 16 17 18 19 20 21 22 23 24 25 26 27 28 29 30
000
FTUS43 KDLH 200600 AAA
TAFINL
TAF AMD
KINL 200633Z 2007/2106 29005KT 6SM BR BKN003
     FM200900 30008G15KT P6SM BKN006
     FM201200 29010G20KT P6SM BKN015
     FM201600 28008KT P6SM SCT030
     FM202000 27008KT P6SM -TSRA BKN035CB
     FM210000 30005KT P6SM BKN035=

USA.gov is the U.S. government's official web portal to all federal, state and local government web resources and services.